createdAt,value
2022-08-23T00:00:30.853Z,25.80
2022-08-23T00:03:00.147Z,25.80
2022-08-23T00:05:31.452Z,25.90
2022-08-23T00:08:01.263Z,26.00
2022-08-23T00:10:32.664Z,26.10
2022-08-23T00:13:01.663Z,26.10
2022-08-23T00:15:30.807Z,26.30
2022-08-23T00:18:00.721Z,26.20
2022-08-23T00:20:30.069Z,26.20
2022-08-23T00:22:58.913Z,26.10
2022-08-23T00:25:27.966Z,26.00
2022-08-23T00:27:58.273Z,26.00
2022-08-23T00:30:27.332Z,26.00
2022-08-23T00:33:16.729Z,26.00
2022-08-23T00:35:46.094Z,25.90
2022-08-23T00:38:32.351Z,26.00
2022-08-23T00:41:04.469Z,26.00
2022-08-23T00:43:56.543Z,26.00
2022-08-23T00:46:58.208Z,25.90
2022-08-23T00:49:28.451Z,25.80
2022-08-23T00:52:01.542Z,25.70
2022-08-23T00:54:32.587Z,25.60
2022-08-23T00:57:06.296Z,25.60
2022-08-23T00:59:36.782Z,25.70
2022-08-23T01:02:10.218Z,25.70
2022-08-23T01:04:42.484Z,25.60
2022-08-23T01:07:15.718Z,25.60
2022-08-23T01:09:47.017Z,25.60
2022-08-23T01:12:32.520Z,25.60
2022-08-23T01:15:07.957Z,25.60
2022-08-23T01:17:43.310Z,25.50
2022-08-23T01:20:15.164Z,25.30
2022-08-23T01:22:54.080Z,25.20
2022-08-23T01:25:25.920Z,25.10
2022-08-23T01:27:55.112Z,25.20
2022-08-23T01:30:27.391Z,25.20
2022-08-23T01:33:01.446Z,25.10
2022-08-23T01:35:39.716Z,25.20
2022-08-23T01:38:10.009Z,25.50
2022-08-23T01:40:43.278Z,25.60
2022-08-23T01:43:14.052Z,25.60
2022-08-23T01:45:44.273Z,25.60
2022-08-23T01:48:15.060Z,25.50
2022-08-23T01:50:44.124Z,25.50
2022-08-23T01:53:15.370Z,25.40
2022-08-23T01:55:50.645Z,25.50
2022-08-23T01:58:22.242Z,25.50
2022-08-23T02:00:51.180Z,25.50
2022-08-23T02:03:21.933Z,25.40
2022-08-23T02:08:42.475Z,25.40
2022-08-23T02:11:15.309Z,25.50
2022-08-23T02:13:48.292Z,25.40
2022-08-23T02:16:25.325Z,25.30
2022-08-23T02:18:54.464Z,25.30
2022-08-23T02:21:23.922Z,25.20
2022-08-23T02:23:53.186Z,25.20
2022-08-23T02:26:31.240Z,25.30
2022-08-23T02:29:00.727Z,25.20
2022-08-23T02:31:29.667Z,25.10
2022-08-23T02:33:59.384Z,25.10
2022-08-23T02:36:30.781Z,25.20
2022-08-23T02:39:00.664Z,25.20
2022-08-23T02:41:31.709Z,25.20
2022-08-23T02:44:01.295Z,25.10
2022-08-23T02:46:31.251Z,25.10
2022-08-23T02:49:00.111Z,25.10
2022-08-23T02:51:29.045Z,25.20
2022-08-23T02:53:58.456Z,25.10
2022-08-23T02:56:31.031Z,25.10
2022-08-23T02:59:00.262Z,25.00
2022-08-23T03:01:30.836Z,25.00
2022-08-23T03:04:11.112Z,24.90
2022-08-23T03:06:40.947Z,24.90
2022-08-23T03:09:11.358Z,24.80
2022-08-23T03:11:46.105Z,24.80
2022-08-23T03:14:15.664Z,24.80
2022-08-23T03:16:45.525Z,24.80
2022-08-23T03:19:14.361Z,24.70
2022-08-23T03:21:44.040Z,24.80
2022-08-23T03:24:14.348Z,24.80
2022-08-23T03:26:46.821Z,24.80
2022-08-23T03:29:19.662Z,24.80
2022-08-23T03:32:01.607Z,24.70
2022-08-23T03:34:33.862Z,24.70
2022-08-23T03:37:03.134Z,24.80
2022-08-23T03:39:32.566Z,24.90
2022-08-23T03:42:03.863Z,25.00
2022-08-23T03:44:35.666Z,25.00
2022-08-23T03:47:06.203Z,24.90
2022-08-23T03:49:35.609Z,24.90
2022-08-23T03:52:06.021Z,25.00
2022-08-23T03:54:35.065Z,25.00
2022-08-23T03:57:09.592Z,25.00
2022-08-23T03:59:40.753Z,24.90
2022-08-23T04:02:12.446Z,25.10
2022-08-23T04:04:41.831Z,25.10
2022-08-23T04:07:35.763Z,25.10
2022-08-23T04:10:06.205Z,25.00
2022-08-23T04:12:40.096Z,24.90
2022-08-23T04:15:14.788Z,25.00
2022-08-23T04:17:44.123Z,25.00
2022-08-23T04:20:13.069Z,25.00
2022-08-23T04:22:54.732Z,25.00
2022-08-23T04:25:34.711Z,24.80
2022-08-23T04:28:07.653Z,24.90
2022-08-23T04:30:36.654Z,24.90
2022-08-23T04:33:09.893Z,24.90
2022-08-23T04:35:41.543Z,24.90
2022-08-23T04:38:18.302Z,24.80
2022-08-23T04:41:18.759Z,24.90
2022-08-23T04:43:50.743Z,24.90
2022-08-23T04:46:19.945Z,24.80
2022-08-23T04:48:49.628Z,24.80
2022-08-23T04:51:20.279Z,24.90
2022-08-23T04:53:50.094Z,24.80
2022-08-23T04:56:57.505Z,24.80
2022-08-23T04:59:28.058Z,24.90
2022-08-23T05:01:56.906Z,24.80
2022-08-23T05:04:25.760Z,24.80
2022-08-23T05:06:55.755Z,25.00
2022-08-23T05:09:25.426Z,25.00
2022-08-23T05:11:54.631Z,24.90
2022-08-23T05:14:27.312Z,24.80
2022-08-23T05:16:56.238Z,24.70
2022-08-23T05:19:25.740Z,24.90
2022-08-23T05:21:57.087Z,25.00
2022-08-23T05:24:41.306Z,25.00
2022-08-23T05:27:13.446Z,25.10
2022-08-23T05:29:44.306Z,25.10
2022-08-23T05:32:13.475Z,25.00
2022-08-23T05:34:42.414Z,25.10
2022-08-23T05:37:12.756Z,25.10
2022-08-23T05:39:43.847Z,25.10
2022-08-23T05:42:15.949Z,25.20
2022-08-23T05:44:47.342Z,25.20
2022-08-23T05:47:24.774Z,25.20
2022-08-23T05:50:23.230Z,25.20
2022-08-23T05:52:52.748Z,25.10
2022-08-23T05:55:34.694Z,25.20
2022-08-23T05:58:21.575Z,25.40
2022-08-23T06:00:55.542Z,25.50
2022-08-23T06:03:24.426Z,25.50
2022-08-23T06:05:59.023Z,25.50
2022-08-23T06:08:30.962Z,25.60
2022-08-23T06:11:06.360Z,25.50
2022-08-23T06:13:44.012Z,25.60
2022-08-23T06:16:16.067Z,25.70
2022-08-23T06:18:47.261Z,25.80
2022-08-23T06:21:36.110Z,25.80
2022-08-23T06:24:07.357Z,25.90
2022-08-23T06:26:44.890Z,25.90
2022-08-23T06:29:15.957Z,25.90
2022-08-23T06:31:51.302Z,25.90
2022-08-23T06:34:33.723Z,25.90
2022-08-23T06:37:27.533Z,26.00
2022-08-23T06:40:04.132Z,25.80
2022-08-23T06:42:52.771Z,25.90
2022-08-23T06:45:34.836Z,26.00
2022-08-23T06:48:09.977Z,26.10
2022-08-23T06:50:39.073Z,26.20
2022-08-23T06:53:39.019Z,26.40
2022-08-23T06:56:29.077Z,26.60
2022-08-23T06:59:09.892Z,26.70
2022-08-23T07:02:16.396Z,26.70
2022-08-23T07:05:02.243Z,26.40
2022-08-23T07:07:49.896Z,26.30
2022-08-23T07:10:19.613Z,26.30
2022-08-23T07:12:50.378Z,26.30
2022-08-23T07:15:22.195Z,26.40
2022-08-23T07:17:51.676Z,26.60
2022-08-23T07:20:22.540Z,26.70
2022-08-23T07:22:51.996Z,26.60
2022-08-23T07:25:21.305Z,26.70
2022-08-23T07:27:55.652Z,26.80
2022-08-23T07:30:25.111Z,26.80
2022-08-23T07:32:55.683Z,26.70
2022-08-23T07:35:28.524Z,26.80
2022-08-23T07:38:01.237Z,26.90
2022-08-23T07:40:39.106Z,26.90
2022-08-23T07:43:10.913Z,27.00
2022-08-23T07:45:43.441Z,26.90
2022-08-23T07:48:14.396Z,27.00
2022-08-23T07:51:15.630Z,27.20
2022-08-23T07:53:46.247Z,27.40
2022-08-23T07:56:21.019Z,27.40
2022-08-23T07:59:08.045Z,27.50
2022-08-23T08:01:44.677Z,27.60
2022-08-23T08:04:14.755Z,27.60
2022-08-23T08:07:10.459Z,27.70
2022-08-23T08:09:41.839Z,27.70
2022-08-23T08:12:11.247Z,27.80
2022-08-23T08:14:43.028Z,27.80
2022-08-23T08:17:13.897Z,28.00
2022-08-23T08:20:10.382Z,27.80
2022-08-23T08:23:00.536Z,28.00
2022-08-23T08:25:48.640Z,28.10
2022-08-23T08:28:20.285Z,28.20
2022-08-23T08:30:49.290Z,28.20
2022-08-23T08:33:18.191Z,28.20
2022-08-23T08:35:57.564Z,28.40
2022-08-23T08:38:30.983Z,28.20
2022-08-23T08:41:06.978Z,28.40
2022-08-23T08:43:47.372Z,28.50
2022-08-23T08:46:22.126Z,28.30
2022-08-23T08:48:54.944Z,28.20
2022-08-23T08:51:39.159Z,28.40
2022-08-23T08:54:12.292Z,28.60
2022-08-23T08:56:52.242Z,28.80
2022-08-23T08:59:28.566Z,28.90
2022-08-23T09:02:00.220Z,29.00
2022-08-23T09:04:37.422Z,29.00
2022-08-23T09:07:16.497Z,29.10
2022-08-23T09:10:04.026Z,29.20
2022-08-23T09:12:41.158Z,29.20
2022-08-23T09:15:22.742Z,29.20
2022-08-23T09:17:58.155Z,29.30
2022-08-23T09:20:33.091Z,29.30
2022-08-23T09:23:10.502Z,29.20
2022-08-23T09:25:42.897Z,29.50
2022-08-23T09:28:17.766Z,29.50
2022-08-23T09:30:54.186Z,29.40
2022-08-23T09:33:27.368Z,29.30
2022-08-23T09:36:14.746Z,29.30
2022-08-23T09:38:54.296Z,29.50
2022-08-23T09:41:30.332Z,29.60
2022-08-23T09:44:02.095Z,29.40
2022-08-23T09:46:35.893Z,29.60
2022-08-23T09:49:26.680Z,29.70
2022-08-23T09:52:03.065Z,29.40
2022-08-23T09:54:34.988Z,29.50
2022-08-23T09:57:10.641Z,29.70
2022-08-23T09:59:44.243Z,29.90
2022-08-23T10:02:27.110Z,29.90
2022-08-23T10:05:01.450Z,30.10
2022-08-23T10:07:38.417Z,30.20
2022-08-23T10:10:19.269Z,30.50
2022-08-23T10:12:50.485Z,30.20
2022-08-23T10:15:42.494Z,30.30
2022-08-23T10:18:19.008Z,30.50
2022-08-23T10:20:58.044Z,30.50
2022-08-23T10:23:39.620Z,30.40
2022-08-23T10:26:12.246Z,30.30
2022-08-23T10:29:07.872Z,30.70
2022-08-23T10:31:44.348Z,30.80
2022-08-23T10:34:25.739Z,31.00
2022-08-23T10:37:14.524Z,31.10
2022-08-23T10:39:58.193Z,30.90
2022-08-23T10:42:40.073Z,30.70
2022-08-23T10:45:18.459Z,31.00
2022-08-23T10:48:00.256Z,30.90
2022-08-23T10:50:42.890Z,31.10
2022-08-23T10:53:17.186Z,30.90
2022-08-23T10:56:04.003Z,30.90
2022-08-23T10:58:44.812Z,31.10
2022-08-23T11:01:24.084Z,31.30
2022-08-23T11:04:04.555Z,31.10
2022-08-23T11:06:51.157Z,31.30
2022-08-23T11:09:48.857Z,31.30
2022-08-23T11:12:25.205Z,31.60
2022-08-23T11:15:10.885Z,31.70
2022-08-23T11:17:57.923Z,31.20
2022-08-23T11:21:14.056Z,31.50
2022-08-23T11:23:55.608Z,31.50
2022-08-23T11:27:07.842Z,31.10
2022-08-23T11:29:45.265Z,31.20
2022-08-23T11:32:46.846Z,31.10
2022-08-23T11:35:43.225Z,31.30
2022-08-23T11:38:15.525Z,31.20
2022-08-23T11:41:01.308Z,31.50
2022-08-23T11:43:42.292Z,31.80
2022-08-23T11:46:27.191Z,31.90
2022-08-23T11:49:30.590Z,31.40
2022-08-23T11:52:09.093Z,31.10
2022-08-23T11:54:46.736Z,31.00
2022-08-23T11:57:45.290Z,31.40
2022-08-23T12:00:26.952Z,31.60
2022-08-23T12:03:06.211Z,31.60
2022-08-23T12:06:22.539Z,32.00
2022-08-23T12:08:56.482Z,31.60
2022-08-23T12:12:07.002Z,31.50
2022-08-23T12:14:49.731Z,31.40
2022-08-23T12:18:10.628Z,31.60
2022-08-23T12:20:40.883Z,31.50
2022-08-23T12:23:19.875Z,31.40
2022-08-23T12:26:00.812Z,31.30
2022-08-23T12:28:42.446Z,31.20
2022-08-23T12:31:30.239Z,31.30
2022-08-23T12:34:18.714Z,31.50
2022-08-23T12:36:55.637Z,30.80
2022-08-23T12:39:31.174Z,31.20
2022-08-23T12:42:07.716Z,31.50
2022-08-23T12:44:37.019Z,31.30
2022-08-23T12:47:14.977Z,31.60
2022-08-23T12:49:54.462Z,31.30
2022-08-23T12:52:27.135Z,31.50
2022-08-23T12:54:58.378Z,31.70
2022-08-23T12:57:38.574Z,31.80
2022-08-23T13:00:22.786Z,31.80
2022-08-23T13:02:58.458Z,32.00
2022-08-23T13:05:34.845Z,31.90
2022-08-23T13:08:07.605Z,31.40
2022-08-23T13:10:40.824Z,31.30
2022-08-23T13:13:12.429Z,31.50
2022-08-23T13:15:43.191Z,31.80
2022-08-23T13:18:12.379Z,31.60
2022-08-23T13:20:41.476Z,31.70
2022-08-23T13:23:10.908Z,31.40
2022-08-23T13:25:44.105Z,31.30
2022-08-23T13:28:24.592Z,31.60
2022-08-23T13:31:01.124Z,31.60
2022-08-23T13:33:31.126Z,31.70
2022-08-23T13:36:13.391Z,31.60
2022-08-23T13:39:08.215Z,31.70
2022-08-23T13:41:39.713Z,31.60
2022-08-23T13:44:11.450Z,31.50
2022-08-23T13:46:46.899Z,31.60
2022-08-23T13:49:19.588Z,31.50
2022-08-23T13:52:45.975Z,31.30
2022-08-23T13:54:54.964Z,31.60
2022-08-23T13:57:29.593Z,31.40
2022-08-23T14:00:00.182Z,31.70
2022-08-23T14:02:29.925Z,31.70
2022-08-23T14:04:59.100Z,31.90
2022-08-23T14:07:28.277Z,31.90
2022-08-23T14:09:57.726Z,32.00
2022-08-23T14:12:30.287Z,32.20
2022-08-23T14:15:00.318Z,33.00
2022-08-23T14:17:30.989Z,33.10
2022-08-23T14:22:51.415Z,33.20
2022-08-23T14:25:20.708Z,33.60
2022-08-23T14:27:51.540Z,33.60
2022-08-23T14:30:29.478Z,33.60
2022-08-23T14:32:59.366Z,33.50
2022-08-23T14:35:29.115Z,33.80
2022-08-23T14:38:05.479Z,33.80
2022-08-23T14:40:36.526Z,33.60
2022-08-23T14:43:13.306Z,33.80
2022-08-23T14:45:42.731Z,33.30
2022-08-23T14:48:11.687Z,33.30
2022-08-23T14:50:41.361Z,33.20
2022-08-23T14:53:10.895Z,33.30
2022-08-23T14:56:12.341Z,33.80
2022-08-23T14:58:44.976Z,33.20
2022-08-23T15:01:14.744Z,33.40
2022-08-23T15:03:44.000Z,33.50
2022-08-23T15:06:14.822Z,33.70
2022-08-23T15:08:44.655Z,33.80
2022-08-23T15:14:06.032Z,34.10
2022-08-23T15:16:35.758Z,33.40
2022-08-23T15:19:05.419Z,32.60
2022-08-23T15:21:34.930Z,32.10
2022-08-23T15:24:03.937Z,32.00
2022-08-23T15:26:33.186Z,31.80
2022-08-23T15:29:02.779Z,31.80
2022-08-23T15:31:33.468Z,31.70
2022-08-23T15:34:02.345Z,31.70
2022-08-23T15:36:32.821Z,31.60
2022-08-23T15:39:01.826Z,31.40
2022-08-23T15:41:30.738Z,31.20
2022-08-23T15:43:59.747Z,31.00
2022-08-23T15:46:28.810Z,30.90
2022-08-23T15:49:03.631Z,30.80
2022-08-23T15:51:33.130Z,30.90
2022-08-23T15:54:02.201Z,30.80
2022-08-23T15:56:35.840Z,30.90
2022-08-23T15:59:05.540Z,30.80
2022-08-23T16:01:35.761Z,30.80
2022-08-23T16:04:07.023Z,30.70
2022-08-23T16:06:37.293Z,30.50
2022-08-23T16:09:09.289Z,30.70
2022-08-23T16:11:41.975Z,30.70
2022-08-23T16:14:10.875Z,30.70
2022-08-23T16:16:41.273Z,30.60
2022-08-23T16:19:11.875Z,30.60
2022-08-23T16:21:41.177Z,30.50
2022-08-23T16:24:10.518Z,30.40
2022-08-23T16:26:46.592Z,30.40
2022-08-23T16:29:17.655Z,30.40
2022-08-23T16:31:47.174Z,30.30
2022-08-23T16:34:19.497Z,30.40
2022-08-23T16:36:53.186Z,30.30
2022-08-23T16:39:24.229Z,30.20
2022-08-23T16:41:53.116Z,30.10
2022-08-23T16:44:22.083Z,30.10
2022-08-23T16:46:52.328Z,30.20
2022-08-23T16:49:22.881Z,30.20
2022-08-23T16:51:52.771Z,30.30
2022-08-23T16:54:21.971Z,30.20
2022-08-23T16:56:51.062Z,29.90
2022-08-23T16:59:20.399Z,30.10
2022-08-23T17:01:54.774Z,30.20
2022-08-23T17:04:30.220Z,30.20
2022-08-23T17:07:00.770Z,30.20
2022-08-23T17:09:30.767Z,30.00
2022-08-23T17:11:59.875Z,29.90
2022-08-23T17:14:29.013Z,29.80
2022-08-23T17:16:57.950Z,29.70
2022-08-23T17:19:28.441Z,29.90
2022-08-23T17:21:57.444Z,29.90
2022-08-23T17:24:26.706Z,29.80
2022-08-23T17:26:55.963Z,29.70
2022-08-23T17:29:24.910Z,29.60
2022-08-23T17:31:53.896Z,29.60
2022-08-23T17:34:22.916Z,29.60
2022-08-23T17:36:55.508Z,29.70
2022-08-23T17:39:29.280Z,29.70
2022-08-23T17:41:59.159Z,29.70
2022-08-23T17:44:34.025Z,29.70
2022-08-23T17:47:07.134Z,29.70
2022-08-23T17:49:37.115Z,29.70
2022-08-23T17:52:09.133Z,29.70
2022-08-23T17:54:38.356Z,29.60
2022-08-23T17:57:10.152Z,29.40
2022-08-23T17:59:39.342Z,29.40
2022-08-23T18:02:08.787Z,29.30
2022-08-23T18:04:37.990Z,29.20
2022-08-23T18:07:08.613Z,29.40
2022-08-23T18:09:43.723Z,29.40
2022-08-23T18:12:17.926Z,29.40
2022-08-23T18:14:46.777Z,29.30
2022-08-23T18:17:15.851Z,29.20
2022-08-23T18:19:44.944Z,29.40
2022-08-23T18:22:15.168Z,29.30
2022-08-23T18:24:44.631Z,29.30
2022-08-23T18:27:30.827Z,29.10
2022-08-23T18:29:59.948Z,29.30
2022-08-23T18:32:28.906Z,29.10
2022-08-23T18:34:57.777Z,29.20
2022-08-23T18:37:28.052Z,29.20
2022-08-23T18:39:57.132Z,29.20
2022-08-23T18:42:26.349Z,29.10
2022-08-23T18:44:55.334Z,29.20
2022-08-23T18:47:24.350Z,29.10
2022-08-23T18:49:53.626Z,29.00
2022-08-23T18:52:22.617Z,29.10
2022-08-23T18:54:53.045Z,29.10
2022-08-23T18:57:21.851Z,29.00
2022-08-23T18:59:50.725Z,28.90
2022-08-23T19:02:19.745Z,28.90
2022-08-23T19:04:48.779Z,29.00
2022-08-23T19:07:17.801Z,29.00
2022-08-23T19:09:46.845Z,28.90
2022-08-23T19:12:17.741Z,28.70
2022-08-23T19:14:46.619Z,28.80
2022-08-23T19:17:15.560Z,28.80
2022-08-23T19:19:44.356Z,28.80
2022-08-23T19:22:14.761Z,28.80
2022-08-23T19:24:43.733Z,28.90
2022-08-23T19:27:15.164Z,28.70
2022-08-23T19:29:45.822Z,28.70
2022-08-23T19:32:14.923Z,28.70
2022-08-23T19:34:44.197Z,28.60
2022-08-23T19:37:20.561Z,28.50
2022-08-23T19:39:52.517Z,28.40
2022-08-23T19:42:21.823Z,28.50
2022-08-23T19:44:52.139Z,28.70
2022-08-23T19:47:23.657Z,28.60
2022-08-23T19:49:57.695Z,28.60
2022-08-23T19:52:26.805Z,28.50
2022-08-23T19:55:00.590Z,28.40
2022-08-23T19:57:35.684Z,28.40
2022-08-23T20:00:15.734Z,28.20
2022-08-23T20:02:48.313Z,28.30
2022-08-23T20:05:18.067Z,28.40
2022-08-23T20:07:47.675Z,28.50
2022-08-23T20:10:16.687Z,28.50
2022-08-23T20:12:45.631Z,28.40
2022-08-23T20:15:16.702Z,28.40
2022-08-23T20:17:46.365Z,28.40
2022-08-23T20:20:15.251Z,28.30
2022-08-23T20:23:02.054Z,28.20
2022-08-23T20:25:31.509Z,28.30
2022-08-23T20:28:05.175Z,28.40
2022-08-23T20:30:35.908Z,28.40
2022-08-23T20:33:05.619Z,28.40
2022-08-23T20:35:34.673Z,28.40
2022-08-23T20:38:04.560Z,28.30
2022-08-23T20:40:33.654Z,28.20
2022-08-23T20:43:02.819Z,28.30
2022-08-23T20:45:32.966Z,28.20
2022-08-23T20:48:03.473Z,28.20
2022-08-23T20:50:37.607Z,28.10
2022-08-23T20:53:11.673Z,28.10
2022-08-23T20:55:41.579Z,28.10
2022-08-23T20:58:10.590Z,28.20
2022-08-23T21:00:39.809Z,28.20
2022-08-23T21:03:10.203Z,28.10
2022-08-23T21:05:39.244Z,28.10
2022-08-23T21:08:08.661Z,28.00
2022-08-23T21:10:42.076Z,28.00
2022-08-23T21:13:14.210Z,28.10
2022-08-23T21:15:43.462Z,28.10
2022-08-23T21:18:13.735Z,28.10
2022-08-23T21:20:45.664Z,28.00
2022-08-23T21:23:14.729Z,28.00
2022-08-23T21:25:43.851Z,28.00
2022-08-23T21:28:13.689Z,28.00
2022-08-23T21:30:42.883Z,28.10
2022-08-23T21:33:13.223Z,28.10
2022-08-23T21:35:42.280Z,28.00
2022-08-23T21:38:11.678Z,27.90
2022-08-23T21:40:40.913Z,27.80
2022-08-23T21:43:09.851Z,27.90
2022-08-23T21:45:41.529Z,27.90
2022-08-23T21:48:10.666Z,27.90
2022-08-23T21:50:41.015Z,27.80
2022-08-23T21:53:09.856Z,27.70
2022-08-23T21:55:39.409Z,27.70
2022-08-23T21:58:09.278Z,27.80
2022-08-23T22:00:39.903Z,27.60
2022-08-23T22:03:09.294Z,27.60
2022-08-23T22:05:42.101Z,27.50
2022-08-23T22:08:14.523Z,27.50
2022-08-23T22:10:57.567Z,27.40
2022-08-23T22:13:28.282Z,27.70
2022-08-23T22:16:03.212Z,27.60
2022-08-23T22:18:32.751Z,27.40
2022-08-23T22:21:04.430Z,27.30
2022-08-23T22:23:34.425Z,27.30
2022-08-23T22:26:05.516Z,27.20
2022-08-23T22:28:46.180Z,27.20
2022-08-23T22:31:16.446Z,27.20
2022-08-23T22:33:46.381Z,27.30
2022-08-23T22:36:20.114Z,27.30
2022-08-23T22:38:49.867Z,27.30
2022-08-23T22:41:20.817Z,27.30
2022-08-23T22:43:49.723Z,27.20
2022-08-23T22:46:19.479Z,27.10
2022-08-23T22:48:49.429Z,27.20
2022-08-23T22:51:21.713Z,27.20
2022-08-23T22:53:53.105Z,27.30
2022-08-23T22:56:24.549Z,27.30
2022-08-23T22:58:55.708Z,27.10
2022-08-23T23:01:29.768Z,27.10
2022-08-23T23:04:01.239Z,27.10
2022-08-23T23:06:31.606Z,27.00
2022-08-23T23:09:01.498Z,27.00
2022-08-23T23:11:30.451Z,27.10
2022-08-23T23:13:59.627Z,27.20
2022-08-23T23:16:30.636Z,27.20
2022-08-23T23:19:17.124Z,27.40
2022-08-23T23:21:50.571Z,27.60
2022-08-23T23:24:22.636Z,27.70
2022-08-23T23:26:52.009Z,27.50
2022-08-23T23:29:22.179Z,27.60
2022-08-23T23:31:51.221Z,27.70
2022-08-23T23:34:20.368Z,27.70
2022-08-23T23:36:50.775Z,27.70
2022-08-23T23:39:19.769Z,27.70
2022-08-23T23:41:48.669Z,27.40
2022-08-23T23:44:22.456Z,27.20
2022-08-23T23:47:00.466Z,27.30
2022-08-23T23:49:32.261Z,27.20
2022-08-23T23:52:05.614Z,27.20
2022-08-23T23:54:36.722Z,27.10
2022-08-23T23:57:07.018Z,27.20
2022-08-23T23:59:36.576Z,27.10
